createdAt,value
2018-06-05T00:01:50.574Z,22.00
2018-06-05T00:04:24.383Z,22.00
2018-06-05T00:06:58.196Z,22.00
2018-06-05T00:09:31.833Z,21.90
2018-06-05T00:12:05.730Z,21.90
2018-06-05T00:14:39.522Z,21.80
2018-06-05T00:17:14.017Z,21.80
2018-06-05T00:19:48.523Z,21.80
2018-06-05T00:22:22.323Z,21.80
2018-06-05T00:24:56.414Z,21.80
2018-06-05T00:27:30.408Z,21.70
2018-06-05T00:30:04.226Z,21.60
2018-06-05T00:32:37.998Z,21.50
2018-06-05T00:35:12.440Z,21.50
2018-06-05T00:37:47.059Z,21.40
2018-06-05T00:40:20.787Z,21.50
2018-06-05T00:42:54.508Z,21.40
2018-06-05T00:45:29.029Z,21.40
2018-06-05T00:48:02.841Z,21.40
2018-06-05T00:50:37.816Z,21.30
2018-06-05T00:53:11.533Z,21.30
2018-06-05T00:55:45.360Z,21.30
2018-06-05T00:58:19.468Z,21.30
2018-06-05T01:00:53.321Z,21.20
2018-06-05T01:03:27.226Z,21.10
2018-06-05T01:06:01.221Z,21.10
2018-06-05T01:08:34.989Z,21.10
2018-06-05T01:11:08.748Z,21.00
2018-06-05T01:13:42.475Z,20.90
2018-06-05T01:16:16.457Z,20.90
2018-06-05T01:18:50.258Z,20.90
2018-06-05T01:21:24.070Z,20.90
2018-06-05T01:23:57.873Z,20.90
2018-06-05T01:26:31.715Z,20.90
2018-06-05T01:29:05.495Z,20.90
2018-06-05T01:31:39.215Z,20.80
2018-06-05T01:34:13.027Z,20.80
2018-06-05T01:36:47.644Z,20.80
2018-06-05T01:39:22.271Z,20.80
2018-06-05T01:41:56.073Z,20.70
2018-06-05T01:44:29.893Z,20.60
2018-06-05T01:47:04.530Z,20.50
2018-06-05T01:49:38.402Z,20.50
2018-06-05T01:52:12.931Z,20.50
2018-06-05T01:54:46.745Z,20.40
2018-06-05T01:57:20.550Z,20.50
2018-06-05T01:59:54.296Z,20.50
2018-06-05T02:02:28.860Z,20.40
2018-06-05T02:05:03.444Z,20.40
2018-06-05T02:07:37.317Z,20.30
2018-06-05T02:10:11.943Z,20.40
2018-06-05T02:12:45.749Z,20.30
2018-06-05T02:15:19.469Z,20.40
2018-06-05T02:17:53.280Z,20.30
2018-06-05T02:20:27.986Z,20.20
2018-06-05T02:23:02.515Z,20.20
2018-06-05T02:25:36.259Z,20.20
2018-06-05T02:28:10.047Z,20.20
2018-06-05T02:30:43.767Z,20.20
2018-06-05T02:33:17.590Z,20.20
2018-06-05T02:35:51.351Z,20.20
2018-06-05T02:38:25.916Z,20.30
2018-06-05T02:40:59.551Z,20.20
2018-06-05T02:43:34.080Z,20.40
2018-06-05T02:46:07.977Z,20.30
2018-06-05T02:48:41.781Z,20.40
2018-06-05T02:51:15.429Z,20.30
2018-06-05T02:53:50.034Z,20.20
2018-06-05T02:56:23.842Z,20.20
2018-06-05T02:58:58.552Z,20.20
2018-06-05T03:01:32.360Z,20.20
2018-06-05T03:04:06.171Z,20.20
2018-06-05T03:06:39.958Z,20.20
2018-06-05T03:09:13.796Z,20.20
2018-06-05T03:11:47.533Z,20.10
2018-06-05T03:14:21.495Z,20.10
2018-06-05T03:16:55.214Z,20.10
2018-06-05T03:19:28.939Z,20.10
2018-06-05T03:22:02.842Z,20.10
2018-06-05T03:24:36.654Z,20.10
2018-06-05T03:27:10.256Z,20.10
2018-06-05T03:29:44.159Z,20.00
2018-06-05T03:32:17.967Z,20.00
2018-06-05T03:34:51.902Z,20.00
2018-06-05T03:37:25.988Z,19.90
2018-06-05T03:39:59.843Z,19.90
2018-06-05T03:42:33.734Z,19.90
2018-06-05T03:45:07.513Z,19.90
2018-06-05T03:47:41.405Z,19.90
2018-06-05T03:50:16.115Z,19.90
2018-06-05T03:52:49.933Z,19.80
2018-06-05T03:55:23.824Z,19.90
2018-06-05T03:57:57.454Z,20.00
2018-06-05T04:00:32.165Z,20.10
2018-06-05T04:03:05.890Z,20.10
2018-06-05T04:05:39.753Z,20.00
2018-06-05T04:08:13.583Z,20.10
2018-06-05T04:10:47.811Z,19.90
2018-06-05T04:13:22.354Z,19.90
2018-06-05T04:15:56.137Z,19.90
2018-06-05T04:18:29.943Z,20.00
2018-06-05T04:21:03.831Z,19.90
2018-06-05T04:23:37.661Z,20.00
2018-06-05T04:26:12.183Z,20.00
2018-06-05T04:28:46.708Z,20.00
2018-06-05T04:31:20.610Z,20.00
2018-06-05T04:33:55.233Z,19.90
2018-06-05T04:36:29.216Z,19.90
2018-06-05T04:39:03.029Z,19.90
2018-06-05T04:41:36.760Z,20.00
2018-06-05T04:44:10.564Z,20.10
2018-06-05T04:46:45.256Z,20.10
2018-06-05T04:49:19.264Z,20.10
2018-06-05T04:51:52.993Z,20.00
2018-06-05T04:54:26.892Z,20.00
2018-06-05T04:57:00.795Z,20.00
2018-06-05T04:59:35.327Z,19.90
2018-06-05T05:02:13.273Z,19.90
2018-06-05T05:04:48.682Z,20.00
2018-06-05T05:07:22.500Z,20.00
2018-06-05T05:09:57.121Z,20.20
2018-06-05T05:12:30.925Z,20.20
2018-06-05T05:15:04.650Z,20.30
2018-06-05T05:17:38.462Z,20.40
2018-06-05T05:20:12.451Z,20.40
2018-06-05T05:22:46.385Z,20.40
2018-06-05T05:25:20.255Z,20.40
2018-06-05T05:27:53.964Z,20.40
2018-06-05T05:30:27.862Z,20.40
2018-06-05T05:33:01.858Z,20.50
2018-06-05T05:35:36.489Z,20.70
2018-06-05T05:38:10.369Z,20.60
2018-06-05T05:40:44.188Z,20.70
2018-06-05T05:43:17.993Z,20.60
2018-06-05T05:45:51.834Z,20.60
2018-06-05T05:48:25.607Z,20.70
2018-06-05T05:50:59.419Z,20.80
2018-06-05T05:53:33.242Z,20.80
2018-06-05T05:56:08.368Z,21.00
2018-06-05T05:58:42.017Z,21.00
2018-06-05T06:01:16.555Z,21.20
2018-06-05T06:03:50.392Z,21.20
2018-06-05T06:06:24.168Z,21.30
2018-06-05T06:08:58.062Z,21.30
2018-06-05T06:11:32.058Z,21.40
2018-06-05T06:14:06.579Z,21.50
2018-06-05T06:16:40.312Z,21.50
2018-06-05T06:19:14.298Z,21.50
2018-06-05T06:21:48.103Z,21.50
2018-06-05T06:24:21.918Z,21.50
2018-06-05T06:26:55.878Z,21.50
2018-06-05T06:29:29.804Z,21.50
2018-06-05T06:32:03.512Z,21.60
2018-06-05T06:34:37.275Z,21.80
2018-06-05T06:37:11.055Z,21.90
2018-06-05T06:39:45.578Z,21.80
2018-06-05T06:42:20.166Z,21.70
2018-06-05T06:44:53.975Z,21.70
2018-06-05T06:47:28.179Z,21.70
2018-06-05T06:50:02.125Z,21.80
2018-06-05T06:52:35.998Z,21.80
2018-06-05T06:55:09.807Z,21.90
2018-06-05T06:57:43.676Z,22.00
2018-06-05T07:00:17.463Z,22.20
2018-06-05T07:02:51.292Z,22.40
2018-06-05T07:05:25.055Z,22.60
2018-06-05T07:07:58.851Z,22.70
2018-06-05T07:10:32.638Z,22.80
2018-06-05T07:13:06.442Z,23.00
2018-06-05T07:15:40.784Z,23.10
2018-06-05T07:18:15.329Z,23.50
2018-06-05T07:20:49.982Z,23.40
2018-06-05T07:23:23.842Z,23.30
2018-06-05T07:25:57.655Z,23.20
2018-06-05T07:28:32.036Z,23.20
2018-06-05T07:31:05.707Z,23.10
2018-06-05T07:33:39.441Z,23.40
2018-06-05T07:36:14.036Z,23.90
2018-06-05T07:38:47.666Z,23.90
2018-06-05T07:41:21.472Z,24.00
2018-06-05T07:43:55.327Z,24.00
2018-06-05T07:46:28.996Z,24.00
2018-06-05T07:49:03.565Z,24.20
2018-06-05T07:51:38.056Z,24.10
2018-06-05T07:54:11.810Z,24.10
2018-06-05T07:56:45.603Z,24.30
2018-06-05T07:59:19.402Z,24.40
2018-06-05T08:01:53.136Z,24.40
2018-06-05T08:04:26.895Z,24.70
2018-06-05T08:07:01.422Z,25.40
2018-06-05T08:09:35.203Z,25.40
2018-06-05T08:12:09.773Z,27.20
2018-06-05T08:14:44.158Z,28.10
2018-06-05T08:17:17.934Z,28.00
2018-06-05T08:19:51.668Z,28.50
2018-06-05T08:22:25.427Z,29.30
2018-06-05T08:24:59.193Z,29.80
2018-06-05T08:27:33.014Z,29.00
2018-06-05T08:30:06.792Z,28.40
2018-06-05T08:32:41.223Z,28.60
2018-06-05T08:35:15.098Z,28.60
2018-06-05T08:37:48.941Z,28.90
2018-06-05T08:40:22.542Z,29.00
2018-06-05T08:42:56.975Z,29.70
2018-06-05T08:45:31.505Z,30.10
2018-06-05T08:48:06.075Z,30.40
2018-06-05T08:50:39.781Z,30.40
2018-06-05T08:53:14.300Z,30.50
2018-06-05T08:55:48.779Z,30.40
2018-06-05T08:58:22.492Z,30.40
2018-06-05T09:00:56.359Z,30.70
2018-06-05T09:03:30.149Z,31.20
2018-06-05T09:06:03.880Z,31.10
2018-06-05T09:08:38.509Z,31.70
2018-06-05T09:11:12.363Z,31.70
2018-06-05T09:13:46.944Z,32.10
2018-06-05T09:16:21.441Z,32.50
2018-06-05T09:18:56.326Z,32.50
2018-06-05T09:21:29.942Z,32.20
2018-06-05T09:24:04.507Z,32.00
2018-06-05T09:26:38.532Z,32.00
2018-06-05T09:29:13.062Z,32.40
2018-06-05T09:31:46.840Z,32.40
2018-06-05T09:34:20.605Z,31.70
2018-06-05T09:36:54.395Z,31.70
2018-06-05T09:39:28.215Z,31.90
2018-06-05T09:42:02.000Z,31.90
2018-06-05T09:44:35.793Z,32.40
2018-06-05T09:47:09.650Z,32.60
2018-06-05T09:49:43.386Z,32.90
2018-06-05T09:52:17.164Z,33.20
2018-06-05T09:54:51.664Z,33.20
2018-06-05T09:57:26.252Z,33.40
2018-06-05T10:00:00.009Z,33.30
2018-06-05T10:02:34.011Z,33.40
2018-06-05T10:05:07.683Z,33.30
2018-06-05T10:07:41.514Z,32.70
2018-06-05T10:10:15.159Z,32.60
2018-06-05T10:12:49.489Z,32.60
2018-06-05T10:15:23.255Z,32.60
2018-06-05T10:17:57.031Z,32.50
2018-06-05T10:20:31.614Z,32.40
2018-06-05T10:23:05.333Z,32.40
2018-06-05T10:25:40.000Z,32.60
2018-06-05T10:28:13.798Z,32.50
2018-06-05T10:30:47.728Z,32.60
2018-06-05T10:33:21.536Z,32.60
2018-06-05T10:35:56.076Z,32.10
2018-06-05T10:38:29.883Z,32.10
2018-06-05T10:41:04.459Z,32.80
2018-06-05T10:43:38.145Z,32.70
2018-06-05T10:46:11.911Z,32.80
2018-06-05T10:48:45.775Z,32.70
2018-06-05T10:51:19.552Z,32.60
2018-06-05T10:53:53.511Z,32.60
2018-06-05T10:56:27.295Z,32.80
2018-06-05T10:59:01.142Z,32.70
2018-06-05T11:01:34.860Z,32.30
2018-06-05T11:04:09.195Z,31.30
2018-06-05T11:06:43.007Z,31.30
2018-06-05T11:09:17.475Z,30.40
2018-06-05T11:11:51.232Z,30.40
2018-06-05T11:14:25.041Z,30.60
2018-06-05T11:16:59.482Z,31.90
2018-06-05T11:19:33.267Z,31.90
2018-06-05T11:22:07.659Z,32.80
2018-06-05T11:24:41.301Z,32.80
2018-06-05T11:27:15.471Z,33.30
2018-06-05T11:29:49.160Z,33.20
2018-06-05T11:32:22.749Z,33.30
2018-06-05T11:34:56.428Z,32.80
2018-06-05T11:37:30.190Z,32.60
2018-06-05T11:40:04.033Z,32.30
2018-06-05T11:42:37.898Z,31.90
2018-06-05T11:45:11.727Z,31.80
2018-06-05T11:47:45.507Z,31.60
2018-06-05T11:50:19.239Z,31.50
2018-06-05T11:52:53.786Z,32.00
2018-06-05T11:55:27.536Z,32.00
2018-06-05T11:58:01.264Z,31.90
2018-06-05T12:00:35.689Z,31.60
2018-06-05T12:03:09.519Z,31.60
2018-06-05T12:05:44.091Z,31.20
2018-06-05T12:08:17.790Z,31.20
2018-06-05T12:10:51.605Z,31.00
2018-06-05T12:13:25.411Z,31.10
2018-06-05T12:15:59.172Z,31.30
2018-06-05T12:18:33.616Z,30.70
2018-06-05T12:21:08.017Z,30.70
2018-06-05T12:23:43.192Z,30.70
2018-06-05T12:26:18.252Z,30.80
2018-06-05T12:28:51.848Z,30.80
2018-06-05T12:31:25.596Z,31.20
2018-06-05T12:34:00.183Z,31.50
2018-06-05T12:36:34.609Z,31.10
2018-06-05T12:39:08.345Z,31.00
2018-06-05T12:41:42.173Z,30.80
2018-06-05T12:44:15.915Z,30.70
2018-06-05T12:46:49.722Z,30.70
2018-06-05T12:49:23.507Z,30.70
2018-06-05T12:51:57.178Z,30.80
2018-06-05T12:54:31.677Z,30.80
2018-06-05T12:57:06.318Z,30.70
2018-06-05T12:59:40.144Z,30.70
2018-06-05T13:02:13.844Z,30.90
2018-06-05T13:04:47.477Z,31.00
2018-06-05T13:07:21.103Z,31.40
2018-06-05T13:09:54.957Z,31.50
2018-06-05T13:12:29.441Z,31.20
2018-06-05T13:15:03.204Z,31.10
2018-06-05T13:17:36.840Z,31.20
2018-06-05T13:20:10.572Z,31.00
2018-06-05T13:22:44.478Z,30.90
2018-06-05T13:25:18.239Z,30.70
2018-06-05T13:27:51.980Z,30.60
2018-06-05T13:30:25.810Z,30.40
2018-06-05T13:32:59.592Z,30.20
2018-06-05T13:35:34.022Z,30.10
2018-06-05T13:38:07.971Z,30.00
2018-06-05T13:40:42.504Z,30.10
2018-06-05T13:43:16.251Z,30.10
2018-06-05T13:45:49.922Z,30.00
2018-06-05T13:48:23.776Z,30.00
2018-06-05T13:50:57.644Z,30.10
2018-06-05T13:53:32.230Z,30.20
2018-06-05T13:56:06.679Z,30.40
2018-06-05T13:58:40.328Z,30.40
2018-06-05T14:01:14.808Z,30.90
2018-06-05T14:03:48.547Z,30.90
2018-06-05T14:06:22.396Z,30.80
2018-06-05T14:08:56.182Z,30.90
2018-06-05T14:11:30.677Z,31.10
2018-06-05T14:14:05.305Z,31.00
2018-06-05T14:16:39.267Z,31.00
2018-06-05T14:19:13.125Z,31.00
2018-06-05T14:21:46.996Z,30.80
2018-06-05T14:24:20.759Z,30.70
2018-06-05T14:26:54.519Z,30.80
2018-06-05T14:29:29.080Z,30.70
2018-06-05T14:32:03.557Z,30.60
2018-06-05T14:34:37.423Z,30.60
2018-06-05T14:37:11.248Z,30.50
2018-06-05T14:39:44.960Z,30.20
2018-06-05T14:42:18.630Z,30.20
2018-06-05T14:44:52.358Z,29.90
2018-06-05T14:47:26.087Z,29.80
2018-06-05T14:49:59.944Z,29.80
2018-06-05T14:52:33.560Z,29.70
2018-06-05T14:55:07.396Z,29.50
2018-06-05T14:57:41.081Z,29.40
2018-06-05T15:00:14.913Z,29.20
2018-06-05T15:02:48.624Z,28.90
2018-06-05T15:05:22.524Z,28.90
2018-06-05T15:07:56.228Z,28.90
2018-06-05T15:10:30.676Z,28.90
2018-06-05T15:13:04.500Z,28.90
2018-06-05T15:15:40.046Z,29.00
2018-06-05T15:18:13.867Z,29.00
2018-06-05T15:20:47.591Z,29.00
2018-06-05T15:23:22.222Z,29.10
2018-06-05T15:25:55.876Z,29.10
2018-06-05T15:28:29.711Z,29.10
2018-06-05T15:31:03.620Z,29.10
2018-06-05T15:33:37.299Z,29.10
2018-06-05T15:36:11.083Z,29.10
2018-06-05T15:38:44.801Z,29.00
2018-06-05T15:41:20.371Z,29.00
2018-06-05T15:43:54.164Z,29.00
2018-06-05T15:46:28.002Z,29.00
2018-06-05T15:49:02.420Z,28.90
2018-06-05T15:51:36.961Z,28.90
2018-06-05T15:54:11.153Z,28.90
2018-06-05T15:56:44.932Z,28.90
2018-06-05T15:59:18.902Z,28.80
2018-06-05T16:01:53.254Z,28.80
2018-06-05T16:04:26.978Z,28.80
2018-06-05T16:07:00.836Z,28.70
2018-06-05T16:09:34.778Z,28.70
2018-06-05T16:12:08.585Z,28.60
2018-06-05T16:14:43.333Z,28.40
2018-06-05T16:17:17.036Z,28.10
2018-06-05T16:20:04.065Z,28.00
2018-06-05T16:22:37.921Z,27.90
2018-06-05T16:25:11.780Z,27.90
2018-06-05T16:27:45.491Z,27.90
2018-06-05T16:30:19.272Z,27.90
2018-06-05T16:32:53.144Z,28.00
2018-06-05T16:35:27.979Z,28.00
2018-06-05T16:38:01.895Z,28.00
2018-06-05T16:40:36.008Z,28.10
2018-06-05T16:43:09.610Z,28.10
2018-06-05T16:45:43.512Z,28.10
2018-06-05T16:48:17.227Z,28.10
2018-06-05T16:50:50.917Z,28.00
2018-06-05T16:53:25.019Z,28.00
2018-06-05T16:55:59.444Z,28.10
2018-06-05T16:58:34.801Z,28.00
2018-06-05T17:01:08.517Z,28.00
2018-06-05T17:03:42.337Z,27.90
2018-06-05T17:06:16.165Z,28.00
2018-06-05T17:08:49.912Z,28.00
2018-06-05T17:11:23.646Z,28.00
2018-06-05T17:13:57.400Z,28.00
2018-06-05T17:16:31.300Z,27.90
2018-06-05T17:19:05.085Z,27.90
2018-06-05T17:21:38.913Z,27.90
2018-06-05T17:24:13.499Z,28.10
2018-06-05T17:26:47.319Z,28.10
2018-06-05T17:29:21.092Z,28.10
2018-06-05T17:31:54.970Z,28.10
2018-06-05T17:34:28.624Z,28.00
2018-06-05T17:37:02.520Z,28.00
2018-06-05T17:39:36.316Z,28.10
2018-06-05T17:42:10.179Z,28.00
2018-06-05T17:44:43.929Z,28.00
2018-06-05T17:47:17.735Z,28.10
2018-06-05T17:49:58.205Z,28.10
2018-06-05T17:52:32.609Z,28.10
2018-06-05T17:55:06.480Z,28.10
2018-06-05T17:57:40.966Z,28.10
2018-06-05T18:00:14.680Z,28.00
2018-06-05T18:02:49.493Z,27.90
2018-06-05T18:05:25.576Z,27.90
2018-06-05T18:07:59.955Z,27.90
2018-06-05T18:10:34.602Z,27.90
2018-06-05T18:13:08.392Z,27.90
2018-06-05T18:15:42.878Z,27.80
2018-06-05T18:18:17.436Z,27.80
2018-06-05T18:20:51.136Z,27.80
2018-06-05T18:23:24.843Z,27.80
2018-06-05T18:25:59.432Z,27.70
2018-06-05T18:28:33.200Z,27.70
2018-06-05T18:31:07.049Z,27.70
2018-06-05T18:33:40.953Z,27.70
2018-06-05T18:36:14.780Z,27.70
2018-06-05T18:38:48.594Z,27.60
2018-06-05T18:41:22.303Z,27.50
2018-06-05T18:43:56.802Z,27.40
2018-06-05T18:46:30.409Z,27.40
2018-06-05T18:49:04.203Z,27.30
2018-06-05T18:51:38.019Z,27.30
2018-06-05T18:54:11.663Z,27.20
2018-06-05T18:56:46.322Z,27.10
2018-06-05T18:59:20.084Z,27.10
2018-06-05T19:01:53.909Z,27.10
2018-06-05T19:04:28.399Z,27.00
2018-06-05T19:07:02.209Z,27.00
2018-06-05T19:09:36.722Z,26.90
2018-06-05T19:12:11.181Z,26.80
2018-06-05T19:14:45.701Z,26.70
2018-06-05T19:17:20.224Z,26.70
2018-06-05T19:19:54.002Z,26.70
2018-06-05T19:22:27.779Z,26.60
2018-06-05T19:25:01.566Z,26.60
2018-06-05T19:27:35.401Z,26.60
2018-06-05T19:30:09.180Z,26.60
2018-06-05T19:32:43.742Z,26.50
2018-06-05T19:35:17.436Z,26.40
2018-06-05T19:37:52.063Z,26.20
2018-06-05T19:40:25.909Z,26.20
2018-06-05T19:43:00.552Z,26.00
2018-06-05T19:45:34.134Z,26.00
2018-06-05T19:48:07.921Z,25.90
2018-06-05T19:50:41.543Z,25.80
2018-06-05T19:53:15.346Z,25.60
2018-06-05T19:55:49.194Z,25.40
2018-06-05T19:58:22.961Z,25.30
2018-06-05T20:00:56.767Z,25.30
2018-06-05T20:03:31.352Z,25.20
2018-06-05T20:06:05.230Z,25.20
2018-06-05T20:08:38.948Z,25.10
2018-06-05T20:11:12.604Z,25.00
2018-06-05T20:13:46.479Z,25.00
2018-06-05T20:16:20.176Z,24.90
2018-06-05T20:18:53.967Z,24.90
2018-06-05T20:21:27.606Z,24.80
2018-06-05T20:24:01.342Z,24.60
2018-06-05T20:26:35.916Z,24.60
2018-06-05T20:29:09.542Z,24.50
2018-06-05T20:31:44.166Z,24.40
2018-06-05T20:34:17.914Z,24.40
2018-06-05T20:36:52.467Z,24.30
2018-06-05T20:39:26.223Z,24.30
2018-06-05T20:41:59.990Z,24.30
2018-06-05T20:44:33.804Z,24.20
2018-06-05T20:47:07.588Z,24.10
2018-06-05T20:49:41.212Z,24.00
2018-06-05T20:52:15.022Z,23.90
2018-06-05T20:54:48.759Z,23.80
2018-06-05T20:57:23.317Z,23.90
2018-06-05T20:59:57.191Z,23.80
2018-06-05T21:02:31.643Z,23.80
2018-06-05T21:05:05.381Z,23.70
2018-06-05T21:07:39.876Z,23.70
2018-06-05T21:10:13.676Z,23.70
2018-06-05T21:12:48.211Z,23.60
2018-06-05T21:15:22.831Z,23.50
2018-06-05T21:17:56.663Z,23.50
2018-06-05T21:20:31.203Z,23.50
2018-06-05T21:23:04.759Z,23.50
2018-06-05T21:25:38.505Z,23.60
2018-06-05T21:28:12.391Z,23.70
2018-06-05T21:30:46.065Z,23.70
2018-06-05T21:33:20.609Z,23.80
2018-06-05T21:35:54.485Z,23.70
2018-06-05T21:38:28.208Z,23.60
2018-06-05T21:41:01.932Z,23.40
2018-06-05T21:43:35.680Z,23.30
2018-06-05T21:46:09.484Z,23.20
2018-06-05T21:48:43.246Z,23.10
2018-06-05T21:51:17.096Z,23.00
2018-06-05T21:53:50.905Z,23.10
2018-06-05T21:56:24.712Z,23.10
2018-06-05T21:58:58.603Z,23.00
2018-06-05T22:01:32.303Z,23.00
2018-06-05T22:04:06.057Z,23.00
2018-06-05T22:06:39.784Z,23.10
2018-06-05T22:09:13.540Z,23.10
2018-06-05T22:11:47.398Z,23.10
2018-06-05T22:14:21.244Z,23.20
2018-06-05T22:16:54.979Z,23.30
2018-06-05T22:19:28.641Z,23.40
2018-06-05T22:22:02.419Z,23.40
2018-06-05T22:24:36.230Z,23.40
2018-06-05T22:27:09.865Z,23.40
2018-06-05T22:29:43.760Z,23.30
2018-06-05T22:32:17.547Z,23.30
2018-06-05T22:34:51.345Z,23.20
2018-06-05T22:37:25.275Z,23.20
2018-06-05T22:39:59.836Z,23.10
2018-06-05T22:42:33.495Z,23.10
2018-06-05T22:45:07.138Z,23.10
2018-06-05T22:47:40.819Z,23.00
2018-06-05T22:50:14.578Z,23.00
2018-06-05T22:52:48.367Z,22.90
2018-06-05T22:55:22.875Z,22.90
2018-06-05T22:57:56.711Z,22.80
2018-06-05T23:00:30.431Z,22.70
2018-06-05T23:03:04.141Z,22.50
2018-06-05T23:05:37.783Z,22.40
2018-06-05T23:08:11.544Z,22.30
2018-06-05T23:10:46.178Z,22.20
2018-06-05T23:13:19.900Z,22.10
2018-06-05T23:15:53.680Z,22.20
2018-06-05T23:18:28.132Z,22.10
2018-06-05T23:21:01.743Z,22.00
2018-06-05T23:23:35.528Z,22.00
2018-06-05T23:26:09.304Z,22.00
2018-06-05T23:28:43.151Z,21.90
2018-06-05T23:31:16.968Z,21.90
2018-06-05T23:33:50.727Z,21.80
2018-06-05T23:36:24.547Z,21.80
2018-06-05T23:38:58.296Z,21.80
2018-06-05T23:41:32.159Z,21.80
2018-06-05T23:44:06.012Z,21.80
2018-06-05T23:46:40.558Z,21.70
2018-06-05T23:49:15.123Z,21.70
2018-06-05T23:51:48.930Z,21.70
2018-06-05T23:54:22.639Z,21.60
2018-06-05T23:56:56.347Z,21.60
2018-06-05T23:59:30.237Z,21.50
